Time;durP1;ratioP1;P1;durP2;ratioP2;P2;SDS_P1;SDS_P2;PMS_P1;PMS_P2;Temp;Humidity;BMP_temperature;BMP_pressure;BME280_temperature;BME280_humidity;BME280_pressure;Samples;Min_cycle;Max_cycle;Signal;HPM_P1;HPM_P2
2021/04/07 00:02:08;;;;;;;3.38;1.60;;;4.00;97.00;;;;;;5052801;28;20021;-85
2021/04/07 00:04:35;;;;;;;3.03;1.40;;;3.80;99.50;;;;;;5054069;28;20071;-86
2021/04/07 00:07:01;;;;;;;3.55;1.60;;;3.90;99.40;;;;;;5052605;28;20036;-85
2021/04/07 00:09:26;;;;;;;2.97;1.67;;;4.00;99.70;;;;;;5052527;28;20021;-86
2021/04/07 00:11:53;;;;;;;2.75;1.50;;;3.80;99.60;;;;;;5052494;28;20477;-86
2021/04/07 00:14:19;;;;;;;3.55;1.50;;;3.80;99.90;;;;;;5053936;28;20472;-86
2021/04/07 00:16:45;;;;;;;4.53;1.75;;;3.70;99.90;;;;;;5052261;28;20029;-86
2021/04/07 00:19:11;;;;;;;2.58;1.40;;;3.80;99.90;;;;;;5052337;28;20037;-86
2021/04/07 00:21:37;;;;;;;4.38;1.40;;;3.80;99.90;;;;;;5052286;28;20036;-86
2021/04/07 00:24:03;;;;;;;1.40;1.00;;;4.00;99.70;;;;;;5052214;28;20036;-86
2021/04/07 00:26:29;;;;;;;2.92;1.48;;;4.20;99.90;;;;;;5052162;28;20472;-86
2021/04/07 00:28:54;;;;;;;1.42;1.00;;;4.30;99.40;;;;;;5053460;28;20021;-86
2021/04/07 00:31:20;;;;;;;2.25;1.10;;;4.40;99.50;;;;;;5052191;28;20017;-86
2021/04/07 00:33:46;;;;;;;2.63;1.40;;;4.40;99.10;;;;;;5053458;28;20104;-86
2021/04/07 00:36:11;;;;;;;3.38;1.35;;;4.40;99.40;;;;;;5037159;28;20462;-86
2021/04/07 00:38:37;;;;;;;2.22;1.38;;;4.30;99.00;;;;;;5015694;28;20079;-86
2021/04/07 00:41:03;;;;;;;4.07;1.85;;;4.40;98.80;;;;;;5015739;28;20029;-86
2021/04/07 00:43:28;;;;;;;2.53;1.33;;;4.50;98.40;;;;;;5015717;28;20021;-86
2021/04/07 00:45:54;;;;;;;4.63;1.63;;;4.30;98.90;;;;;;5015643;28;20056;-86
2021/04/07 00:48:21;;;;;;;3.95;1.60;;;4.10;99.50;;;;;;5015699;28;20132;-86
2021/04/07 00:50:47;;;;;;;3.38;1.38;;;4.20;98.90;;;;;;5015650;28;20079;-86
2021/04/07 00:53:12;;;;;;;2.95;1.20;;;4.40;99.20;;;;;;5015526;28;20124;-85
2021/04/07 00:55:44;;;;;;;3.78;1.50;;;4.50;98.80;;;;;;5015842;28;20025;-85
2021/04/07 00:58:11;;;;;;;2.13;1.27;;;4.40;98.50;;;;;;5037434;28;20469;-85
2021/04/07 01:00:37;;;;;;;1.77;1.10;;;4.70;98.50;;;;;;5019485;28;20032;-85
2021/04/07 01:03:03;;;;;;;2.65;1.33;;;4.70;98.30;;;;;;5019399;28;20381;-85
2021/04/07 01:05:29;;;;;;;2.15;1.45;;;4.70;98.10;;;;;;5019383;28;20026;-85
2021/04/07 01:07:57;;;;;;;2.08;1.20;;;4.50;98.40;;;;;;5019370;28;20041;-85
2021/04/07 01:10:24;;;;;;;1.95;1.42;;;4.60;98.60;;;;;;5019320;28;20034;-85
2021/04/07 01:12:50;;;;;;;3.30;1.52;;;4.30;98.20;;;;;;5019310;28;20021;-85
2021/04/07 01:15:17;;;;;;;1.98;1.20;;;4.10;99.20;;;;;;5019339;28;20448;-85
2021/04/07 01:17:43;;;;;;;4.32;1.40;;;4.20;99.00;;;;;;5037163;28;20425;-85
2021/04/07 01:20:11;;;;;;;3.67;1.70;;;4.30;98.60;;;;;;5019156;28;20049;-84
2021/04/07 01:22:38;;;;;;;1.75;1.40;;;4.10;97.90;;;;;;5019127;28;20022;-85
2021/04/07 01:25:06;;;;;;;2.33;1.60;;;4.00;98.70;;;;;;5036726;28;20030;-85
2021/04/07 01:27:32;;;;;;;2.35;1.20;;;3.70;99.10;;;;;;5036676;28;20028;-85
2021/04/07 01:29:57;;;;;;;3.38;1.50;;;3.80;99.30;;;;;;5036701;28;20021;-85
2021/04/07 01:32:23;;;;;;;4.03;1.73;;;3.80;99.30;;;;;;5036650;28;20021;-85
2021/04/07 01:34:49;;;;;;;4.43;1.42;;;3.80;98.80;;;;;;5025001;28;20374;-85
2021/04/07 01:37:15;;;;;;;2.53;1.30;;;3.80;99.80;;;;;;5055339;28;20532;-85
2021/04/07 01:39:41;;;;;;;3.20;1.58;;;3.90;99.60;;;;;;5055262;28;20032;-85
2021/04/07 01:42:08;;;;;;;2.20;1.73;;;3.90;99.00;;;;;;5056472;28;20021;-85
2021/04/07 01:44:37;;;;;;;2.75;1.80;;;3.80;97.90;;;;;;5056376;28;20029;-85
2021/04/07 01:47:04;;;;;;;2.70;1.30;;;3.80;98.70;;;;;;5055085;28;20443;-85
2021/04/07 01:49:32;;;;;;;2.55;1.70;;;3.80;99.10;;;;;;5055016;28;20130;-85
2021/04/07 01:51:58;;;;;;;2.58;1.55;;;3.90;99.20;;;;;;5056529;28;20457;-85
2021/04/07 01:54:24;;;;;;;4.13;1.70;;;3.90;99.00;;;;;;5054973;28;20031;-85
2021/04/07 01:56:52;;;;;;;1.95;1.15;;;4.00;98.10;;;;;;5055024;28;20025;-85
2021/04/07 01:59:22;;;;;;;3.28;1.60;;;3.80;99.00;;;;;;5054911;28;20052;-85
2021/04/07 02:01:49;;;;;;;3.65;1.55;;;3.70;98.80;;;;;;5054942;28;20056;-85
2021/04/07 02:04:15;;;;;;;2.70;1.70;;;3.50;99.80;;;;;;5054843;28;20017;-85
2021/04/07 02:06:44;;;;;;;2.42;1.42;;;3.80;99.70;;;;;;5054916;28;20025;-85
2021/04/07 02:09:11;;;;;;;4.47;1.90;;;4.10;99.10;;;;;;5054046;28;20388;-85
2021/04/07 02:11:41;;;;;;;3.53;1.67;;;4.10;98.50;;;;;;5056230;28;20028;-85
2021/04/07 02:14:08;;;;;;;3.42;1.55;;;4.20;98.00;;;;;;5054597;28;20024;-85
2021/04/07 02:16:34;;;;;;;2.42;1.35;;;3.90;98.90;;;;;;5055765;28;20155;-85
2021/04/07 02:19:01;;;;;;;2.03;1.38;;;3.90;99.00;;;;;;5054808;28;20055;-85
2021/04/07 02:21:26;;;;;;;1.73;1.23;;;4.10;99.10;;;;;;5054434;28;20476;-85
2021/04/07 02:23:52;;;;;;;2.10;1.40;;;4.10;98.60;;;;;;5054350;28;20108;-85
2021/04/07 02:26:17;;;;;;;1.73;1.25;;;4.10;97.90;;;;;;5054330;28;20420;-85
2021/04/07 02:28:43;;;;;;;3.70;1.63;;;4.00;98.60;;;;;;5054525;28;20108;-85
2021/04/07 02:31:09;;;;;;;2.45;1.45;;;4.20;98.10;;;;;;5054251;28;20021;-85
2021/04/07 02:33:35;;;;;;;4.85;1.98;;;4.20;98.20;;;;;;5055478;28;20060;-85
2021/04/07 02:36:01;;;;;;;3.85;1.80;;;4.30;97.60;;;;;;5053993;28;20566;-85
2021/04/07 02:38:27;;;;;;;3.67;1.52;;;4.20;97.20;;;;;;5055406;28;20452;-85
2021/04/07 02:40:53;;;;;;;3.30;1.50;;;4.20;97.80;;;;;;5055374;28;20032;-85
2021/04/07 02:43:19;;;;;;;3.53;1.83;;;4.10;97.80;;;;;;5053926;28;20035;-84
2021/04/07 02:45:45;;;;;;;4.03;1.55;;;3.90;97.70;;;;;;5053991;28;20115;-85
2021/04/07 02:48:10;;;;;;;5.03;2.00;;;3.90;98.40;;;;;;5053926;28;20029;-85
2021/04/07 02:50:36;;;;;;;3.90;1.85;;;3.70;97.80;;;;;;5055166;28;20071;-84
2021/04/07 02:53:02;;;;;;;2.58;1.73;;;3.80;98.80;;;;;;5055151;28;20104;-85
2021/04/07 02:55:28;;;;;;;2.72;1.70;;;3.80;98.30;;;;;;5053830;28;20017;-84
2021/04/07 02:57:53;;;;;;;6.30;1.77;;;3.80;98.60;;;;;;5053785;28;20025;-85
2021/04/07 03:00:19;;;;;;;2.05;1.60;;;3.90;98.30;;;;;;5053747;28;20056;-85
2021/04/07 03:02:45;;;;;;;5.15;2.20;;;4.00;97.90;;;;;;5053593;28;20481;-85
2021/04/07 03:05:11;;;;;;;3.90;1.85;;;3.90;97.30;;;;;;5053617;28;20021;-85
2021/04/07 03:07:42;;;;;;;3.00;1.90;;;3.80;98.40;;;;;;5055142;28;20558;-85
2021/04/07 03:10:10;;;;;;;3.00;1.65;;;3.90;98.50;;;;;;5054861;28;20017;-85
2021/04/07 03:12:37;;;;;;;5.47;1.83;;;4.00;97.60;;;;;;5053478;28;20021;-85
2021/04/07 03:15:04;;;;;;;2.78;1.63;;;4.00;97.30;;;;;;5053422;28;20496;-85
2021/04/07 03:17:30;;;;;;;2.38;1.65;;;4.00;97.90;;;;;;5053245;28;20082;-85
2021/04/07 03:19:56;;;;;;;5.63;1.80;;;4.00;97.90;;;;;;5053566;28;20029;-84
2021/04/07 03:22:21;;;;;;;3.30;1.88;;;4.10;97.20;;;;;;5053315;28;20057;-85
2021/04/07 03:24:47;;;;;;;3.97;1.70;;;4.00;97.40;;;;;;5054482;28;20021;-85
2021/04/07 03:27:13;;;;;;;4.65;2.00;;;3.90;97.40;;;;;;5054690;28;20024;-85
2021/04/07 03:29:38;;;;;;;4.00;2.00;;;3.70;97.60;;;;;;5053149;28;20024;-85
2021/04/07 03:32:06;;;;;;;6.40;1.75;;;3.90;98.60;;;;;;5053087;28;20022;-85
2021/04/07 03:34:32;;;;;;;3.38;1.85;;;3.80;98.00;;;;;;5050533;28;20052;-84
2021/04/07 03:36:57;;;;;;;6.15;1.80;;;3.80;97.70;;;;;;5016711;28;20516;-85
2021/04/07 03:39:23;;;;;;;4.60;2.10;;;4.00;98.20;;;;;;5016648;28;20103;-85
2021/04/07 03:41:49;;;;;;;3.08;1.58;;;3.90;97.80;;;;;;5034219;28;20032;-85
2021/04/07 03:44:14;;;;;;;6.07;2.10;;;3.90;97.70;;;;;;5034095;28;20446;-85
2021/04/07 03:46:40;;;;;;;3.55;2.05;;;3.60;98.10;;;;;;5016424;28;20026;-85
2021/04/07 03:49:06;;;;;;;3.38;1.90;;;3.60;98.50;;;;;;5034110;28;20025;-84
2021/04/07 03:51:32;;;;;;;2.78;1.77;;;3.40;98.30;;;;;;5017002;28;20057;-84
2021/04/07 03:53:57;;;;;;;3.70;2.10;;;3.50;98.90;;;;;;5016319;28;20032;-85
2021/04/07 03:56:23;;;;;;;4.07;2.78;;;3.50;98.40;;;;;;5017470;28;20033;-84
2021/04/07 03:58:49;;;;;;;3.22;2.00;;;3.20;98.30;;;;;;5034271;28;20021;-84
2021/04/07 04:01:14;;;;;;;3.92;1.98;;;3.20;99.40;;;;;;5033907;28;20022;-85
2021/04/07 04:03:40;;;;;;;4.65;2.22;;;3.40;99.30;;;;;;5016106;28;20465;-85
2021/04/07 04:06:06;;;;;;;3.75;1.95;;;3.50;98.90;;;;;;5016213;28;20025;-84
2021/04/07 04:08:32;;;;;;;4.38;2.30;;;3.40;98.80;;;;;;5034085;28;20033;-84
2021/04/07 04:10:57;;;;;;;3.72;2.15;;;3.20;99.20;;;;;;5016060;28;20055;-84
2021/04/07 04:13:23;;;;;;;3.65;2.22;;;3.40;99.10;;;;;;5016101;28;20029;-84
2021/04/07 04:15:49;;;;;;;6.15;2.22;;;3.50;99.10;;;;;;5015983;28;20435;-85
2021/04/07 04:18:15;;;;;;;3.42;2.20;;;3.30;98.70;;;;;;5033959;28;20100;-85
2021/04/07 04:20:40;;;;;;;3.53;2.13;;;3.30;99.20;;;;;;5033742;28;20038;-84
2021/04/07 04:23:06;;;;;;;7.38;2.33;;;3.40;98.80;;;;;;5015884;28;20389;-85
2021/04/07 04:25:32;;;;;;;3.35;1.80;;;3.60;98.50;;;;;;5015890;28;20061;-84
2021/04/07 04:27:58;;;;;;;3.15;1.63;;;3.60;98.40;;;;;;5015822;28;20026;-84
2021/04/07 04:30:26;;;;;;;2.95;1.60;;;3.60;98.50;;;;;;5033371;28;20026;-84
2021/04/07 04:32:52;;;;;;;4.05;2.28;;;3.70;98.20;;;;;;5033684;28;20017;-84
2021/04/07 04:35:18;;;;;;;3.00;1.77;;;3.80;97.70;;;;;;5029453;28;20511;-84
2021/04/07 04:37:45;;;;;;;3.67;1.98;;;3.80;97.70;;;;;;5052079;28;20116;-84
2021/04/07 04:40:12;;;;;;;4.05;1.80;;;3.90;97.20;;;;;;5052106;28;20021;-85
2021/04/07 04:42:38;;;;;;;3.65;1.95;;;3.80;97.60;;;;;;5052619;28;20026;-85
2021/04/07 04:45:05;;;;;;;6.32;2.78;;;3.90;97.80;;;;;;5051982;28;20025;-85
2021/04/07 04:47:30;;;;;;;4.85;2.03;;;3.90;96.80;;;;;;5053304;28;20017;-85
2021/04/07 04:49:56;;;;;;;4.10;1.80;;;3.70;97.30;;;;;;5052236;28;20031;-85
2021/04/07 04:52:22;;;;;;;4.10;2.25;;;3.70;97.40;;;;;;5051988;28;20025;-85
2021/04/07 04:54:49;;;;;;;3.53;2.35;;;3.70;97.10;;;;;;5051945;28;20043;-84
2021/04/07 04:57:15;;;;;;;5.18;2.20;;;3.80;96.70;;;;;;5051891;28;20029;-85
2021/04/07 04:59:41;;;;;;;4.72;2.10;;;3.60;97.00;;;;;;5051902;28;20056;-85
2021/04/07 05:02:07;;;;;;;3.47;1.95;;;3.60;97.00;;;;;;5051791;28;20065;-84
2021/04/07 05:04:33;;;;;;;2.20;1.70;;;3.60;96.90;;;;;;5051811;28;20029;-84
2021/04/07 05:06:58;;;;;;;4.97;2.17;;;3.60;97.00;;;;;;5053155;28;20380;-84
2021/04/07 05:09:24;;;;;;;3.83;1.73;;;3.40;96.80;;;;;;5051837;28;20017;-85
2021/04/07 05:11:50;;;;;;;2.78;1.58;;;3.50;98.20;;;;;;5051797;28;20078;-84
2021/04/07 05:14:17;;;;;;;4.05;1.80;;;3.50;97.70;;;;;;5052029;28;20063;-84
2021/04/07 05:16:43;;;;;;;5.47;1.92;;;3.60;97.50;;;;;;5051709;28;20029;-85
2021/04/07 05:19:09;;;;;;;6.53;2.00;;;3.60;96.60;;;;;;5051709;28;20024;-84
2021/04/07 05:21:34;;;;;;;4.82;2.20;;;3.70;97.10;;;;;;5052995;28;20495;-85
2021/04/07 05:24:00;;;;;;;3.67;1.70;;;3.70;97.40;;;;;;5051612;28;20028;-85
2021/04/07 05:26:26;;;;;;;3.40;1.77;;;3.50;96.30;;;;;;5051686;28;20075;-84
2021/04/07 05:28:51;;;;;;;4.22;2.20;;;3.50;97.60;;;;;;5051549;28;20036;-85
2021/04/07 05:31:17;;;;;;;3.38;2.00;;;3.50;96.90;;;;;;5051579;28;20017;-85
2021/04/07 05:33:46;;;;;;;5.53;2.40;;;3.60;97.40;;;;;;5052811;28;20107;-84
2021/04/07 05:36:14;;;;;;;6.40;2.97;;;3.70;96.80;;;;;;5051365;28;20135;-84
2021/04/07 05:38:39;;;;;;;5.75;2.25;;;3.70;97.10;;;;;;5051538;28;20025;-85
2021/04/07 05:41:06;;;;;;;3.47;2.13;;;3.80;96.20;;;;;;5051477;28;20411;-84
2021/04/07 05:43:34;;;;;;;3.03;1.80;;;3.90;96.00;;;;;;5054255;28;20032;-85
2021/04/07 05:45:59;;;;;;;4.63;2.00;;;4.00;96.00;;;;;;5055198;28;20128;-84
2021/04/07 05:48:25;;;;;;;5.07;2.22;;;3.70;95.60;;;;;;5056377;28;20104;-84
2021/04/07 05:50:53;;;;;;;3.97;1.90;;;3.50;96.10;;;;;;5056328;28;20427;-85
2021/04/07 05:53:19;;;;;;;5.53;2.42;;;3.60;96.60;;;;;;5054886;28;20028;-84
2021/04/07 05:55:47;;;;;;;5.65;2.03;;;3.50;96.60;;;;;;5054818;28;20072;-84
2021/04/07 05:58:13;;;;;;;3.10;1.83;;;3.50;96.80;;;;;;5054880;28;20029;-84
2021/04/07 06:00:40;;;;;;;5.40;2.58;;;3.60;97.10;;;;;;5054829;28;20469;-84
2021/04/07 06:03:07;;;;;;;8.13;2.50;;;3.50;96.10;;;;;;5054725;28;20032;-85
2021/04/07 06:05:34;;;;;;;6.13;2.30;;;3.40;96.40;;;;;;5056073;28;20029;-85
2021/04/07 06:08:00;;;;;;;6.80;2.53;;;3.60;96.70;;;;;;5056000;28;20021;-85
2021/04/07 06:10:27;;;;;;;3.80;1.95;;;3.60;96.00;;;;;;5054700;28;20025;-85
2021/04/07 06:12:57;;;;;;;4.70;2.65;;;3.50;97.00;;;;;;5054577;28;20499;-84
2021/04/07 06:15:24;;;;;;;5.90;2.17;;;3.10;95.80;;;;;;5054464;28;20384;-83
2021/04/07 06:20:26;;;;;;;4.45;2.33;;;2.90;98.10;;;;;;5056091;28;20029;-83
2021/04/07 06:22:53;;;;;;;6.60;2.15;;;3.20;97.80;;;;;;5055437;28;20611;-83
2021/04/07 06:25:20;;;;;;;4.30;2.25;;;3.30;96.90;;;;;;5054323;28;20476;-83
2021/04/07 06:27:51;;;;;;;6.82;2.30;;;3.30;97.20;;;;;;5054343;28;20033;-83
2021/04/07 06:30:18;;;;;;;6.50;2.50;;;3.40;97.20;;;;;;5055529;28;20052;-83
2021/04/07 06:32:44;;;;;;;5.85;2.17;;;3.30;96.30;;;;;;5054222;28;20025;-83
2021/04/07 06:35:10;;;;;;;4.80;2.30;;;3.40;96.50;;;;;;5047987;28;20053;-82
2021/04/07 06:37:36;;;;;;;6.25;2.35;;;3.20;95.80;;;;;;5017677;28;20429;-82
2021/04/07 06:40:07;;;;;;;5.80;2.45;;;2.70;98.00;;;;;;5035425;28;20393;-83
2021/04/07 06:42:33;;;;;;;5.30;2.20;;;3.20;97.30;;;;;;5035400;28;20436;-82
2021/04/07 06:44:59;;;;;;;5.55;2.08;;;3.40;97.20;;;;;;5017506;28;20076;-82
2021/04/07 06:47:26;;;;;;;5.07;2.20;;;3.50;96.70;;;;;;5017509;28;20025;-82
2021/04/07 06:49:53;;;;;;;4.63;2.03;;;3.80;96.70;;;;;;5017486;28;20056;-82
2021/04/07 06:52:23;;;;;;;4.28;2.38;;;3.90;94.90;;;;;;5017643;28;20033;-82
2021/04/07 06:54:53;;;;;;;3.25;1.73;;;3.80;95.20;;;;;;5017231;28;20036;-82
2021/04/07 06:57:19;;;;;;;7.20;1.90;;;4.00;95.10;;;;;;5017434;28;20021;-82
2021/04/07 06:59:45;;;;;;;5.40;2.53;;;3.90;95.20;;;;;;5017316;28;20025;-82
2021/04/07 07:02:12;;;;;;;7.72;2.15;;;4.00;95.70;;;;;;5017217;28;20075;-82
2021/04/07 07:04:39;;;;;;;4.28;1.80;;;4.20;94.50;;;;;;5017133;28;20035;-80
2021/04/07 07:07:05;;;;;;;6.25;2.10;;;3.70;94.00;;;;;;5017058;28;20025;-81
2021/04/07 07:09:31;;;;;;;4.15;1.85;;;3.70;94.70;;;;;;5017110;28;20168;-81
2021/04/07 07:11:59;;;;;;;7.07;2.38;;;3.40;94.80;;;;;;5017895;28;20116;-81
2021/04/07 07:14:26;;;;;;;2.90;1.80;;;3.40;95.70;;;;;;5019801;28;20519;-82
2021/04/07 07:16:52;;;;;;;4.30;1.63;;;3.70;95.50;;;;;;5018946;28;20055;-82
2021/04/07 07:19:30;;;;;;;7.25;2.28;;;3.70;94.40;;;;;;5020269;28;20029;-81
2021/04/07 07:22:01;;;;;;;7.07;1.63;;;3.70;95.20;;;;;;5016935;28;20032;-81
2021/04/07 07:24:35;;;;;;;5.72;1.75;;;3.60;94.80;;;;;;5016744;28;20021;-80
2021/04/07 07:27:04;;;;;;;9.18;2.47;;;3.80;94.60;;;;;;5016838;28;20389;-80
2021/04/07 07:29:31;;;;;;;9.50;3.42;;;3.90;93.80;;;;;;5016694;28;20120;-80
2021/04/07 07:32:02;;;;;;;5.15;2.10;;;3.60;92.70;;;;;;5016737;28;20025;-80
2021/04/07 07:34:29;;;;;;;8.93;2.22;;;3.70;94.00;;;;;;5016519;28;20076;-81
2021/04/07 07:36:55;;;;;;;6.15;1.80;;;3.60;92.90;;;;;;5033192;28;20464;-81
2021/04/07 07:39:35;;;;;;;3.67;1.38;;;3.10;94.10;;;;;;5016494;28;20049;-81
2021/04/07 07:42:04;;;;;;;4.18;1.60;;;2.90;93.80;;;;;;5016552;28;20029;-80
2021/04/07 07:44:34;;;;;;;4.05;1.63;;;2.90;94.10;;;;;;5016499;28;20064;-81
2021/04/07 07:47:04;;;;;;;4.00;1.65;;;2.90;94.70;;;;;;5016498;28;20032;-81
2021/04/07 07:49:30;;;;;;;7.82;2.35;;;2.80;96.10;;;;;;5016454;28;20025;-82
2021/04/07 07:51:56;;;;;;;7.63;2.03;;;2.90;95.60;;;;;;5016375;28;20473;-82
2021/04/07 07:54:24;;;;;;;6.82;2.00;;;2.80;96.70;;;;;;5016324;28;20025;-82
2021/04/07 07:56:51;;;;;;;5.63;2.10;;;3.00;96.40;;;;;;5034043;28;20025;-82
2021/04/07 07:59:31;;;;;;;4.95;2.22;;;3.20;96.60;;;;;;5016245;28;20026;-83
2021/04/07 08:01:57;;;;;;;5.20;2.20;;;3.20;97.40;;;;;;5033916;28;20022;-83
2021/04/07 08:04:25;;;;;;;5.07;2.00;;;3.40;96.40;;;;;;5015991;28;20029;-83
2021/04/07 08:06:51;;;;;;;4.45;1.88;;;3.40;96.30;;;;;;5015537;28;20017;-83
2021/04/07 08:09:16;;;;;;;5.57;1.88;;;3.40;96.90;;;;;;5016157;28;20394;-82
2021/04/07 08:11:47;;;;;;;6.43;2.03;;;3.80;96.30;;;;;;5033832;28;20025;-82
2021/04/07 08:14:22;;;;;;;5.38;2.03;;;3.80;95.50;;;;;;5033714;28;20546;-81
2021/04/07 08:16:48;;;;;;;3.47;1.80;;;3.70;95.70;;;;;;5033631;28;20500;-82
2021/04/07 08:19:14;;;;;;;4.88;2.20;;;3.40;96.10;;;;;;5034268;28;20021;-83
2021/04/07 08:21:41;;;;;;;4.45;2.05;;;3.10;97.40;;;;;;5015923;28;20499;-82
2021/04/07 08:24:10;;;;;;;9.05;1.95;;;3.20;97.90;;;;;;5015790;28;20425;-81
2021/04/07 08:26:38;;;;;;;4.43;1.92;;;3.40;97.90;;;;;;5015904;28;20021;-82
2021/04/07 08:29:05;;;;;;;6.57;2.05;;;3.40;97.80;;;;;;5015746;28;20025;-81
2021/04/07 08:31:31;;;;;;;5.70;2.22;;;3.30;97.50;;;;;;5015885;28;20025;-80
2021/04/07 08:34:00;;;;;;;6.47;2.40;;;3.40;98.40;;;;;;5015695;28;20051;-81
2021/04/07 08:36:30;;;;;;;6.38;2.20;;;3.30;97.60;;;;;;5047615;28;20049;-81
2021/04/07 08:39:05;;;;;;;4.13;1.90;;;3.50;98.30;;;;;;5052144;28;20037;-81
2021/04/07 08:41:32;;;;;;;5.07;1.88;;;3.80;97.30;;;;;;5052092;28;20082;-82
2021/04/07 08:43:59;;;;;;;5.57;2.10;;;3.60;97.40;;;;;;5052022;28;20580;-81
2021/04/07 08:46:28;;;;;;;5.03;2.03;;;3.40;97.80;;;;;;5052000;28;20021;-81
2021/04/07 08:48:55;;;;;;;7.97;2.05;;;3.60;97.80;;;;;;5051993;28;20029;-81
2021/04/07 08:51:24;;;;;;;7.43;2.38;;;3.60;97.80;;;;;;5051960;28;20025;-81
2021/04/07 08:53:55;;;;;;;3.70;1.95;;;3.30;98.60;;;;;;5051966;28;20033;-82
2021/04/07 08:56:28;;;;;;;6.38;2.17;;;3.30;99.90;;;;;;5053249;28;20051;-82
2021/04/07 08:58:56;;;;;;;5.45;1.92;;;3.40;99.90;;;;;;5051872;28;20036;-82
2021/04/07 09:01:32;;;;;;;7.60;1.88;;;3.50;99.90;;;;;;5051777;28;20040;-82
2021/04/07 09:04:10;;;;;;;5.85;1.88;;;3.20;99.90;;;;;;5051794;28;20054;-82
2021/04/07 09:06:55;;;;;;;8.05;2.83;;;3.30;99.90;;;;;;5051912;28;20021;-81
2021/04/07 09:09:22;;;;;;;4.82;2.28;;;3.40;99.90;;;;;;5051891;28;20025;-79
2021/04/07 09:11:50;;;;;;;8.57;2.42;;;3.10;99.80;;;;;;5052985;28;20100;-81
2021/04/07 09:14:18;;;;;;;5.60;2.08;;;3.20;99.90;;;;;;5051801;28;20396;-81
2021/04/07 09:16:44;;;;;;;5.85;2.38;;;3.40;99.80;;;;;;5051697;28;20028;-81
2021/04/07 09:19:20;;;;;;;3.50;1.95;;;3.70;99.20;;;;;;5054388;28;20032;-81
2021/04/07 09:21:57;;;;;;;4.82;1.90;;;3.70;98.10;;;;;;5056886;28;20025;-80
2021/04/07 09:24:29;;;;;;;4.18;2.00;;;3.50;96.70;;;;;;5056704;28;20053;-82
2021/04/07 09:26:56;;;;;;;5.95;2.20;;;3.40;97.20;;;;;;5055560;28;20021;-81
2021/04/07 09:29:22;;;;;;;4.05;2.38;;;3.50;97.80;;;;;;5055476;28;20025;-82
2021/04/07 09:31:53;;;;;;;2.83;1.63;;;3.50;97.80;;;;;;5055473;28;20112;-82
2021/04/07 09:34:19;;;;;;;6.63;1.95;;;3.80;97.30;;;;;;5055600;28;20029;-81
2021/04/07 09:36:47;;;;;;;4.88;2.20;;;4.00;96.70;;;;;;5055372;28;20045;-81
2021/04/07 09:39:16;;;;;;;4.00;2.05;;;4.40;96.70;;;;;;5055293;28;20024;-81
2021/04/07 09:41:44;;;;;;;5.53;2.30;;;4.60;94.60;;;;;;5055463;28;20442;-82
2021/04/07 09:44:15;;;;;;;5.35;1.98;;;4.30;93.40;;;;;;5056334;28;20074;-81
2021/04/07 09:46:41;;;;;;;5.32;2.20;;;4.20;94.20;;;;;;5055118;28;20025;-82
2021/04/07 09:49:13;;;;;;;3.95;2.10;;;4.00;94.80;;;;;;5054996;28;20061;-81
2021/04/07 09:51:42;;;;;;;5.10;2.00;;;4.30;94.60;;;;;;5055053;28;20032;-81
2021/04/07 09:54:12;;;;;;;6.82;2.20;;;4.60;94.20;;;;;;5055035;28;20384;-83
2021/04/07 09:57:02;;;;;;;5.85;2.10;;;4.70;93.60;;;;;;5055256;28;20032;-82
2021/04/07 09:59:32;;;;;;;4.00;2.05;;;4.70;93.10;;;;;;5054937;28;20555;-83
2021/04/07 10:01:58;;;;;;;6.38;2.10;;;4.40;93.50;;;;;;5054751;28;20028;-82
2021/04/07 10:04:29;;;;;;;6.53;2.05;;;4.30;93.70;;;;;;5054689;28;20384;-82
2021/04/07 10:06:55;;;;;;;7.80;2.25;;;4.30;93.30;;;;;;5054763;28;20528;-82
2021/04/07 10:09:29;;;;;;;9.13;2.33;;;4.10;94.10;;;;;;5056479;28;20172;-81
2021/04/07 10:11:55;;;;;;;;;;;4.10;93.80;;;;;;5055033;28;20100;-81
2021/04/07 10:14:21;;;;;;;8.45;2.33;;;4.10;94.00;;;;;;5055315;28;19951;-83
2021/04/07 10:16:47;;;;;;;7.75;2.20;;;4.00;93.00;;;;;;5038434;28;20090;-81
2021/04/07 10:19:12;;;;;;;7.30;2.33;;;3.80;92.80;;;;;;5054841;28;20033;-81
2021/04/07 10:21:40;;;;;;;7.85;2.42;;;3.40;93.00;;;;;;5054540;28;20112;-84
2021/04/07 10:24:07;;;;;;;6.55;2.20;;;3.60;93.60;;;;;;5054382;28;20503;-82
2021/04/07 10:26:40;;;;;;;7.57;2.33;;;3.70;93.80;;;;;;5054355;28;20025;-79
2021/04/07 10:29:06;;;;;;;6.95;2.33;;;3.70;93.80;;;;;;5053778;28;20028;-82
2021/04/07 10:31:32;;;;;;;4.88;2.10;;;3.90;93.80;;;;;;5054409;28;20029;-83
2021/04/07 10:34:09;;;;;;;9.15;2.45;;;4.10;94.40;;;;;;5054197;28;20388;-81
2021/04/07 10:36:40;;;;;;;6.28;1.70;;;4.40;93.70;;;;;;5040356;28;20080;-81
2021/04/07 10:39:14;;;;;;;6.25;2.10;;;4.60;93.70;;;;;;5017793;28;20038;-82
2021/04/07 10:41:46;;;;;;;4.40;2.05;;;4.50;93.00;;;;;;5017727;28;20536;-80
2021/04/07 10:44:30;;;;;;;6.05;2.00;;;4.50;93.10;;;;;;5017593;28;20021;-82
2021/04/07 10:46:57;;;;;;;4.95;2.05;;;4.70;93.60;;;;;;5017551;28;20021;-81
2021/04/07 10:49:24;;;;;;;2.58;1.77;;;5.30;92.70;;;;;;5017574;28;20124;-81
2021/04/07 10:52:05;;;;;;;5.43;1.85;;;5.60;91.30;;;;;;5035206;28;20574;-81
2021/04/07 10:54:31;;;;;;;3.75;1.77;;;5.80;90.60;;;;;;5017674;28;20045;-82
2021/04/07 10:57:01;;;;;;;3.33;1.45;;;5.50;90.70;;;;;;5017394;28;20370;-81
2021/04/07 10:59:28;;;;;;;4.05;2.00;;;5.10;90.70;;;;;;5035373;28;20100;-81
2021/04/07 11:01:54;;;;;;;5.45;1.95;;;5.00;91.40;;;;;;5017856;28;20086;-82
2021/04/07 11:04:20;;;;;;;4.90;1.80;;;5.10;91.60;;;;;;5017131;28;20121;-82
2021/04/07 11:06:54;;;;;;;6.82;1.70;;;5.40;91.70;;;;;;5035247;28;20088;-83
2021/04/07 11:09:24;;;;;;;4.03;1.58;;;5.40;91.60;;;;;;5017231;28;20063;-83
2021/04/07 11:11:50;;;;;;;7.05;2.10;;;5.40;90.90;;;;;;5017333;28;20029;-82
2021/04/07 11:14:16;;;;;;;8.32;1.85;;;5.10;89.40;;;;;;5034810;28;20527;-82
2021/04/07 11:16:41;;;;;;;4.35;2.10;;;4.80;90.50;;;;;;5016942;28;20025;-82
2021/04/07 11:19:15;;;;;;;8.93;1.95;;;5.10;90.80;;;;;;5034862;28;20032;-82
2021/04/07 11:21:41;;;;;;;6.60;2.17;;;5.10;89.10;;;;;;5034696;28;20071;-81
2021/04/07 11:24:07;;;;;;;9.10;2.20;;;5.20;89.50;;;;;;5016860;28;20292;-82
2021/04/07 11:26:33;;;;;;;4.65;2.13;;;5.50;90.20;;;;;;5016901;28;20025;-81
2021/04/07 11:28:59;;;;;;;10.48;2.55;;;6.10;89.00;;;;;;5034832;28;20469;-84
2021/04/07 11:31:28;;;;;;;3.95;1.77;;;6.70;85.60;;;;;;5034500;28;20035;-82
2021/04/07 11:33:58;;;;;;;4.60;2.05;;;6.60;87.10;;;;;;5034426;28;20027;-82
2021/04/07 11:41:48;;;;;;;5.95;1.70;;;5.50;82.90;;;;;;5033797;28;20083;-81
2021/04/07 11:46:40;;;;;;;7.45;1.70;;;5.50;85.40;;;;;;5034489;28;20025;-84
2021/04/07 11:49:06;;;;;;;4.47;1.60;;;5.20;86.40;;;;;;5034167;28;20385;-84
2021/04/07 11:51:36;;;;;;;6.05;1.80;;;5.40;85.50;;;;;;5016419;28;20028;-83
2021/04/07 11:54:02;;;;;;;7.85;2.05;;;5.50;86.50;;;;;;5016533;28;20061;-85
2021/04/07 11:56:28;;;;;;;6.55;2.13;;;5.20;86.40;;;;;;5016381;28;20121;-85
2021/04/07 11:58:54;;;;;;;6.75;1.90;;;5.40;88.20;;;;;;5016272;28;20457;-86
2021/04/07 12:01:19;;;;;;;9.25;2.22;;;5.90;86.70;;;;;;5016335;28;20029;-84
2021/04/07 12:03:45;;;;;;;8.30;2.00;;;5.60;86.40;;;;;;5033829;28;20030;-85
2021/04/07 12:06:11;;;;;;;6.03;1.55;;;5.50;87.00;;;;;;5033909;28;20021;-83
2021/04/07 12:08:37;;;;;;;4.50;1.65;;;5.30;87.40;;;;;;5016194;28;20113;-83
2021/04/07 12:11:03;;;;;;;7.40;1.88;;;5.10;90.00;;;;;;5034048;28;20167;-85
2021/04/07 12:13:29;;;;;;;6.75;1.73;;;5.40;90.50;;;;;;5016078;28;20112;-84
2021/04/07 12:15:56;;;;;;;9.32;2.28;;;5.40;90.80;;;;;;5015928;28;20047;-84
2021/04/07 12:18:22;;;;;;;7.90;2.42;;;5.20;90.40;;;;;;5033673;28;20053;-84
2021/04/07 12:20:48;;;;;;;7.70;1.92;;;4.90;92.70;;;;;;5016006;28;20390;-84
2021/04/07 12:23:14;;;;;;;8.27;2.67;;;4.90;93.10;;;;;;5033840;28;20029;-83
2021/04/07 12:25:43;;;;;;;6.45;1.80;;;5.00;93.10;;;;;;5015984;28;20461;-84
2021/04/07 12:28:09;;;;;;;6.45;2.03;;;5.50;92.60;;;;;;5033753;28;20022;-84
2021/04/07 12:30:47;;;;;;;2.85;1.48;;;6.40;92.30;;;;;;5033516;28;20028;-81
2021/04/07 12:33:19;;;;;;;7.50;1.88;;;7.30;90.50;;;;;;5016440;28;20546;-84
2021/04/07 12:35:45;;;;;;;7.55;2.63;;;7.70;89.40;;;;;;5033300;28;20042;-79
2021/04/07 12:38:11;;;;;;;5.47;2.53;;;7.50;86.80;;;;;;5033727;28;20021;-80
2021/04/07 12:40:38;;;;;;;4.72;1.70;;;7.80;87.30;;;;;;5015779;28;20452;-84
2021/04/07 12:43:04;;;;;;;8.43;2.72;;;7.40;86.60;;;;;;5016028;28;20029;-84
2021/04/07 12:45:30;;;;;;;11.90;4.13;;;7.00;86.90;;;;;;5033362;28;20018;-84
2021/04/07 12:47:56;;;;;;;5.68;2.17;;;7.20;88.00;;;;;;5015631;28;20021;-84
2021/04/07 12:50:21;;;;;;;7.32;2.78;;;6.50;88.00;;;;;;5015621;28;20029;-84
2021/04/07 12:52:47;;;;;;;3.67;2.08;;;6.40;90.10;;;;;;5035486;28;20021;-85
2021/04/07 12:55:13;;;;;;;4.57;1.63;;;6.00;90.50;;;;;;5019699;28;20033;-83
2021/04/07 12:57:39;;;;;;;13.02;3.35;;;6.00;90.50;;;;;;5019588;28;20030;-85
2021/04/07 13:00:05;;;;;;;5.10;1.88;;;6.40;90.60;;;;;;5020557;28;20056;-84
2021/04/07 13:02:31;;;;;;;5.65;1.70;;;6.50;90.90;;;;;;5038038;28;20104;-84
2021/04/07 13:04:57;;;;;;;4.00;2.00;;;6.90;89.80;;;;;;5019857;28;20025;-84
2021/04/07 13:07:23;;;;;;;7.18;2.58;;;6.90;90.70;;;;;;5019964;28;20063;-85
2021/04/07 13:09:52;;;;;;;12.98;4.50;;;6.70;90.10;;;;;;5019388;28;20041;-84